Time;durP1;ratioP1;P1;durP2;ratioP2;P2;SDS_P1;SDS_P2;PMS_P1;PMS_P2;Temp;Humidity;BMP_temperature;BMP_pressure;BME280_temperature;BME280_humidity;BME280_pressure;Samples;Min_cycle;Max_cycle;Signal;HPM_P1;HPM_P2
2023/12/31 00:01:14;;;;;;;12.35;2.42;;;11.50;99.90;;;;;;5033083;28;20046;-55
2023/12/31 00:03:41;;;;;;;7.93;2.17;;;11.50;99.90;;;;;;5032748;28;20045;-55
2023/12/31 00:06:08;;;;;;;8.05;2.10;;;11.60;99.90;;;;;;5033027;28;20091;-56
2023/12/31 00:08:34;;;;;;;13.85;2.42;;;11.50;99.90;;;;;;5032851;28;20168;-56
2023/12/31 00:11:02;;;;;;;10.43;2.30;;;11.50;99.90;;;;;;5032785;28;20046;-55
2023/12/31 00:13:29;;;;;;;8.43;2.15;;;11.50;99.90;;;;;;5032896;28;20048;-55
2023/12/31 00:15:56;;;;;;;9.30;2.13;;;11.50;99.90;;;;;;5032952;28;20481;-55
2023/12/31 00:18:22;;;;;;;10.68;2.67;;;11.50;99.90;;;;;;5033149;28;20389;-56
2023/12/31 00:20:49;;;;;;;12.30;2.10;;;11.50;99.90;;;;;;5033058;28;20041;-56
2023/12/31 00:23:16;;;;;;;9.88;2.42;;;11.50;99.90;;;;;;5032812;28;20046;-56
2023/12/31 00:25:43;;;;;;;7.30;2.05;;;11.50;99.90;;;;;;5032970;28;20042;-55
2023/12/31 00:28:10;;;;;;;7.72;2.13;;;11.50;99.90;;;;;;5033144;28;20041;-56
2023/12/31 00:30:37;;;;;;;9.48;2.45;;;11.60;99.90;;;;;;5033221;28;20125;-64
2023/12/31 00:33:03;;;;;;;9.05;2.38;;;11.60;99.90;;;;;;5036868;28;20044;-65
2023/12/31 00:35:31;;;;;;;12.98;2.97;;;11.70;99.90;;;;;;5036985;28;20037;-64
2023/12/31 00:37:57;;;;;;;9.27;2.25;;;11.60;99.90;;;;;;5036506;28;20113;-64
2023/12/31 00:40:25;;;;;;;8.23;2.70;;;11.60;99.90;;;;;;5036419;28;20045;-65
2023/12/31 00:42:52;;;;;;;10.98;2.58;;;11.60;99.90;;;;;;5036786;28;20356;-64
2023/12/31 00:45:18;;;;;;;11.90;2.15;;;11.40;99.90;;;;;;5036531;28;20061;-64
2023/12/31 00:47:45;;;;;;;11.05;2.47;;;11.20;99.90;;;;;;5034916;28;20044;-64
2023/12/31 00:50:12;;;;;;;8.38;1.70;;;11.00;99.90;;;;;;5034883;28;20169;-64
2023/12/31 00:52:39;;;;;;;6.05;1.27;;;10.80;99.90;;;;;;5036559;28;20391;-58
2023/12/31 00:55:06;;;;;;;3.70;1.02;;;10.50;99.90;;;;;;5036065;28;20041;-66
2023/12/31 00:57:33;;;;;;;3.30;0.70;;;10.20;99.90;;;;;;5034930;28;20052;-66
2023/12/31 00:59:59;;;;;;;2.38;0.80;;;9.90;99.90;;;;;;5036068;28;20037;-66
2023/12/31 01:02:27;;;;;;;2.33;0.65;;;9.60;99.90;;;;;;5034772;28;20095;-66
2023/12/31 01:04:54;;;;;;;3.17;0.77;;;9.40;99.90;;;;;;5034822;28;20053;-66
2023/12/31 01:07:21;;;;;;;2.13;0.80;;;9.20;99.90;;;;;;5035856;28;20037;-66
2023/12/31 01:09:48;;;;;;;2.08;0.50;;;9.00;99.90;;;;;;5036121;28;20045;-66
2023/12/31 01:12:15;;;;;;;3.15;0.50;;;8.90;99.90;;;;;;5034521;28;20482;-66
2023/12/31 01:14:42;;;;;;;2.85;0.50;;;8.80;99.90;;;;;;5035657;28;20077;-66
2023/12/31 01:17:09;;;;;;;1.40;0.60;;;8.70;99.90;;;;;;5034598;28;20037;-66
2023/12/31 01:19:36;;;;;;;2.45;0.50;;;8.60;99.90;;;;;;5034625;28;20073;-66
2023/12/31 01:22:03;;;;;;;2.70;0.55;;;8.60;99.90;;;;;;5034432;28;20099;-66
2023/12/31 01:24:30;;;;;;;1.48;0.70;;;8.60;99.90;;;;;;5034244;28;20045;-66
2023/12/31 01:26:56;;;;;;;3.90;0.85;;;8.60;99.90;;;;;;5035845;28;20073;-66
2023/12/31 01:29:23;;;;;;;2.70;0.73;;;8.60;99.90;;;;;;5035497;28;20121;-66
2023/12/31 01:31:50;;;;;;;2.95;0.70;;;8.50;99.90;;;;;;5035734;28;20117;-66
2023/12/31 01:34:17;;;;;;;5.57;0.57;;;8.50;99.90;;;;;;5035560;28;20041;-66
2023/12/31 01:36:44;;;;;;;3.08;0.47;;;8.50;99.90;;;;;;5035767;28;20112;-66
2023/12/31 01:39:11;;;;;;;4.85;0.60;;;8.40;99.90;;;;;;5035489;28;20046;-66
2023/12/31 01:41:38;;;;;;;2.65;0.60;;;8.50;99.90;;;;;;5035507;28;20040;-66
2023/12/31 01:44:05;;;;;;;7.32;1.98;;;8.40;99.90;;;;;;5034211;28;20132;-66
2023/12/31 01:46:32;;;;;;;5.20;1.20;;;8.50;99.90;;;;;;5034975;28;20041;-66
2023/12/31 01:48:58;;;;;;;3.13;0.80;;;8.40;99.90;;;;;;5035098;28;20125;-67
2023/12/31 01:51:25;;;;;;;5.53;0.90;;;8.50;99.90;;;;;;5035426;28;20048;-67
2023/12/31 01:53:52;;;;;;;5.45;0.70;;;8.40;99.90;;;;;;5035419;28;20458;-67
2023/12/31 01:56:19;;;;;;;2.55;0.60;;;8.50;99.90;;;;;;5034962;28;20041;-67
2023/12/31 01:58:46;;;;;;;4.22;0.70;;;8.50;99.90;;;;;;5033641;28;20107;-67
2023/12/31 02:01:12;;;;;;;6.85;1.10;;;8.50;99.90;;;;;;5033542;28;20147;-67
2023/12/31 02:03:39;;;;;;;4.10;0.80;;;8.40;99.90;;;;;;5033533;28;20050;-67
2023/12/31 02:06:06;;;;;;;4.10;0.95;;;8.40;99.90;;;;;;5034576;28;20049;-67
2023/12/31 02:08:33;;;;;;;3.95;0.90;;;8.40;99.90;;;;;;5034678;28;20124;-67
2023/12/31 02:11:00;;;;;;;8.30;1.42;;;8.40;99.90;;;;;;5034497;28;20041;-67
2023/12/31 02:13:26;;;;;;;2.60;0.70;;;8.40;99.90;;;;;;5034450;28;20473;-67
2023/12/31 02:15:53;;;;;;;3.47;0.90;;;8.40;99.90;;;;;;5033126;28;20046;-67
2023/12/31 02:18:20;;;;;;;3.70;0.68;;;8.50;99.90;;;;;;5033524;28;20474;-67
2023/12/31 02:20:47;;;;;;;6.05;0.77;;;8.40;99.90;;;;;;5034206;28;20084;-67
2023/12/31 02:23:14;;;;;;;3.85;0.80;;;8.50;99.90;;;;;;5033335;28;20136;-67
2023/12/31 02:25:40;;;;;;;3.85;1.10;;;8.50;99.90;;;;;;5034629;28;20037;-67
2023/12/31 02:28:07;;;;;;;4.65;0.82;;;8.40;99.90;;;;;;5033201;28;20459;-67
2023/12/31 02:30:34;;;;;;;4.85;1.00;;;8.50;99.90;;;;;;5034558;28;20041;-67
2023/12/31 02:33:02;;;;;;;6.00;1.08;;;8.40;99.90;;;;;;5017047;28;20052;-67
2023/12/31 02:35:29;;;;;;;3.45;0.82;;;8.40;99.90;;;;;;5034830;28;20116;-67
2023/12/31 02:37:56;;;;;;;4.43;0.73;;;8.40;99.90;;;;;;5034203;28;20110;-67
2023/12/31 02:40:22;;;;;;;4.45;0.80;;;8.40;99.90;;;;;;5033033;28;20041;-68
2023/12/31 02:42:50;;;;;;;7.40;0.90;;;8.50;99.90;;;;;;5033059;28;20355;-68
2023/12/31 02:45:17;;;;;;;7.38;1.17;;;8.40;99.90;;;;;;5032267;28;20041;-67
2023/12/31 02:47:44;;;;;;;3.83;1.02;;;8.40;99.90;;;;;;5034498;28;20124;-68
2023/12/31 02:50:11;;;;;;;7.75;1.00;;;8.40;99.90;;;;;;5034342;28;20038;-68
2023/12/31 02:52:37;;;;;;;5.13;0.90;;;8.40;99.90;;;;;;5033744;28;20117;-58
2023/12/31 02:55:04;;;;;;;7.45;1.05;;;8.40;99.90;;;;;;5032295;28;20062;-59
2023/12/31 02:57:31;;;;;;;7.22;0.85;;;8.40;99.90;;;;;;5034391;28;20419;-59
2023/12/31 02:59:58;;;;;;;6.20;1.10;;;8.50;99.90;;;;;;5033945;28;20049;-67
2023/12/31 03:02:24;;;;;;;7.43;2.20;;;8.50;99.90;;;;;;5032427;28;20045;-68
2023/12/31 03:04:51;;;;;;;6.95;0.90;;;8.50;99.90;;;;;;5032134;28;20041;-68
2023/12/31 03:07:18;;;;;;;5.88;1.20;;;8.50;99.90;;;;;;5033858;28;20044;-68
2023/12/31 03:09:45;;;;;;;7.57;1.27;;;8.50;99.90;;;;;;5032315;28;20131;-67
2023/12/31 03:12:12;;;;;;;8.32;1.48;;;8.50;99.90;;;;;;5033992;28;20193;-68
2023/12/31 03:14:39;;;;;;;6.38;1.05;;;8.60;99.90;;;;;;5033098;28;20041;-68
2023/12/31 03:17:06;;;;;;;8.43;1.23;;;8.50;99.90;;;;;;5033840;28;20044;-68
2023/12/31 03:19:35;;;;;;;7.75;1.75;;;8.50;99.90;;;;;;5032012;28;20034;-68
2023/12/31 03:22:02;;;;;;;6.65;1.10;;;8.50;99.90;;;;;;5032382;28;20486;-68
2023/12/31 03:24:29;;;;;;;8.20;1.17;;;8.50;99.90;;;;;;5033285;28;20033;-68
2023/12/31 03:26:56;;;;;;;6.82;1.38;;;8.50;99.90;;;;;;5033472;28;20048;-68
2023/12/31 03:29:23;;;;;;;6.38;1.20;;;8.50;99.90;;;;;;5033697;28;20091;-68
2023/12/31 03:31:49;;;;;;;6.68;1.23;;;8.60;99.90;;;;;;5032170;28;20446;-69
2023/12/31 03:34:16;;;;;;;6.82;1.20;;;8.50;99.90;;;;;;5015385;28;20068;-70
2023/12/31 03:36:43;;;;;;;8.30;1.58;;;8.60;99.90;;;;;;5033414;28;20052;-69
2023/12/31 03:39:10;;;;;;;7.53;1.25;;;8.60;99.90;;;;;;5031706;28;20037;-69
2023/12/31 03:41:38;;;;;;;7.57;1.30;;;8.60;99.90;;;;;;5033379;28;20376;-69
2023/12/31 03:44:05;;;;;;;7.82;1.20;;;8.60;99.90;;;;;;5031501;28;20548;-69
2023/12/31 03:46:33;;;;;;;13.25;1.80;;;8.60;99.90;;;;;;5031754;28;20053;-69
2023/12/31 03:48:59;;;;;;;4.20;0.90;;;8.60;99.90;;;;;;5032990;28;20077;-69
2023/12/31 03:51:26;;;;;;;10.88;1.30;;;8.70;99.90;;;;;;5031929;28;20081;-68
2023/12/31 03:53:53;;;;;;;12.23;1.63;;;8.70;99.90;;;;;;5032837;28;20037;-67
2023/12/31 03:56:20;;;;;;;9.65;1.55;;;8.70;99.90;;;;;;5031653;28;20042;-67
2023/12/31 03:58:47;;;;;;;13.10;1.83;;;8.70;99.90;;;;;;5032856;28;20103;-67
2023/12/31 04:01:14;;;;;;;10.93;1.40;;;8.70;99.90;;;;;;5031527;28;20054;-67
2023/12/31 04:03:41;;;;;;;11.98;2.05;;;8.70;99.90;;;;;;5033202;28;20050;-67
2023/12/31 04:06:08;;;;;;;11.25;1.58;;;8.70;99.90;;;;;;5034293;28;20394;-68
2023/12/31 04:08:34;;;;;;;12.40;2.13;;;8.70;99.90;;;;;;5035702;28;20049;-70
2023/12/31 04:11:01;;;;;;;11.07;1.77;;;8.70;99.90;;;;;;5036904;28;20410;-68
2023/12/31 04:13:28;;;;;;;8.82;1.55;;;8.60;99.90;;;;;;5036879;28;20045;-68
2023/12/31 04:15:55;;;;;;;8.05;1.33;;;8.70;99.90;;;;;;5018799;28;20045;-68
2023/12/31 04:18:23;;;;;;;8.02;1.10;;;8.70;99.90;;;;;;5036631;28;20071;-68
2023/12/31 04:20:51;;;;;;;9.13;1.88;;;8.60;99.90;;;;;;5035584;28;20541;-69
2023/12/31 04:23:18;;;;;;;10.25;1.77;;;8.60;99.90;;;;;;5036974;28;20121;-69
2023/12/31 04:25:45;;;;;;;12.45;1.90;;;8.60;99.90;;;;;;5036433;28;20061;-68
2023/12/31 04:28:12;;;;;;;8.90;1.55;;;8.60;99.90;;;;;;5036884;28;20053;-68
2023/12/31 04:30:40;;;;;;;12.30;1.67;;;8.50;99.90;;;;;;5036268;28;20088;-68
2023/12/31 04:33:07;;;;;;;18.00;2.38;;;8.50;99.90;;;;;;5036245;28;20406;-68
2023/12/31 04:35:34;;;;;;;11.15;1.90;;;8.50;99.90;;;;;;5036883;28;20041;-68
2023/12/31 04:38:02;;;;;;;8.77;1.77;;;8.50;99.90;;;;;;5036843;28;20033;-68
2023/12/31 04:40:29;;;;;;;11.63;2.25;;;8.50;99.90;;;;;;5034942;28;20057;-68
2023/12/31 04:42:56;;;;;;;11.57;2.30;;;8.50;99.90;;;;;;5034737;28;20577;-68
2023/12/31 04:45:22;;;;;;;16.10;2.35;;;8.50;99.90;;;;;;5036302;28;20467;-68
2023/12/31 04:47:49;;;;;;;10.27;1.55;;;8.50;99.90;;;;;;5034623;28;20037;-68
2023/12/31 04:50:16;;;;;;;11.23;1.85;;;8.50;99.90;;;;;;5034978;28;20053;-68
2023/12/31 04:52:43;;;;;;;11.25;1.67;;;8.50;99.90;;;;;;5036050;28;20450;-68
2023/12/31 04:55:10;;;;;;;12.65;1.55;;;8.50;99.90;;;;;;5034535;28;20398;-68
2023/12/31 04:57:37;;;;;;;11.07;1.75;;;8.50;99.90;;;;;;5034839;28;20088;-68
2023/12/31 05:00:03;;;;;;;11.43;1.73;;;8.60;99.90;;;;;;5036068;28;20048;-68
2023/12/31 05:02:30;;;;;;;11.25;1.60;;;8.50;99.90;;;;;;5036229;28;20033;-68
2023/12/31 05:04:57;;;;;;;12.32;2.75;;;8.50;99.90;;;;;;5035743;28;20497;-68
2023/12/31 05:07:24;;;;;;;14.57;2.25;;;8.50;99.90;;;;;;5036130;28;20045;-68
2023/12/31 05:09:51;;;;;;;12.52;1.90;;;8.50;99.90;;;;;;5035689;28;20046;-68
2023/12/31 05:12:18;;;;;;;13.18;2.40;;;8.40;99.90;;;;;;5036052;28;20049;-68
2023/12/31 05:14:45;;;;;;;15.85;2.00;;;8.40;99.90;;;;;;5035278;28;20558;-68
2023/12/31 05:17:11;;;;;;;10.90;1.52;;;8.30;99.90;;;;;;5035828;28;20485;-58
2023/12/31 05:19:39;;;;;;;8.25;1.60;;;8.40;99.90;;;;;;5035637;28;20389;-59
2023/12/31 05:22:06;;;;;;;7.60;1.67;;;8.30;99.90;;;;;;5036131;28;20129;-58
2023/12/31 05:24:33;;;;;;;8.32;1.35;;;8.30;99.90;;;;;;5035758;28;20037;-58
2023/12/31 05:26:59;;;;;;;6.07;1.42;;;8.30;99.90;;;;;;5035462;28;20475;-59
2023/12/31 05:29:26;;;;;;;7.68;1.15;;;8.30;99.90;;;;;;5035566;28;20052;-59
2023/12/31 05:31:53;;;;;;;5.63;1.00;;;8.30;99.90;;;;;;5035739;28;20037;-58
2023/12/31 05:34:20;;;;;;;8.90;1.10;;;8.30;99.90;;;;;;5035808;28;20048;-58
2023/12/31 05:36:46;;;;;;;9.88;1.20;;;8.30;99.90;;;;;;5035764;28;20045;-58
2023/12/31 05:39:14;;;;;;;6.40;1.60;;;8.20;99.90;;;;;;5035468;28;20045;-58
2023/12/31 05:41:41;;;;;;;6.88;1.02;;;8.20;99.90;;;;;;5035606;28;20069;-58
2023/12/31 05:44:08;;;;;;;5.63;0.90;;;8.10;99.90;;;;;;5034934;28;20041;-58
2023/12/31 05:46:34;;;;;;;5.32;0.90;;;8.20;99.90;;;;;;5035431;28;20049;-57
2023/12/31 05:49:01;;;;;;;3.95;0.65;;;8.10;99.90;;;;;;5035368;28;20044;-58
2023/12/31 05:51:28;;;;;;;6.85;1.60;;;8.10;99.90;;;;;;5034977;28;20041;-57
2023/12/31 05:53:55;;;;;;;2.78;0.52;;;8.10;99.90;;;;;;5034668;28;20505;-57
2023/12/31 05:56:22;;;;;;;4.28;0.60;;;8.00;99.90;;;;;;5035018;28;20037;-58
2023/12/31 05:58:49;;;;;;;5.28;0.52;;;8.00;99.90;;;;;;5035101;28;20438;-58
2023/12/31 06:01:16;;;;;;;4.93;0.70;;;7.90;99.90;;;;;;5034720;28;20049;-58
2023/12/31 06:03:43;;;;;;;1.65;0.50;;;7.90;99.90;;;;;;5034539;28;20060;-58
2023/12/31 06:06:10;;;;;;;4.22;0.40;;;7.80;99.90;;;;;;5034475;28;20053;-58
2023/12/31 06:08:37;;;;;;;2.67;0.30;;;7.80;99.90;;;;;;5034776;28;20405;-58
2023/12/31 06:11:04;;;;;;;2.10;0.45;;;7.70;99.90;;;;;;5034671;28;20046;-58
2023/12/31 06:13:31;;;;;;;2.78;0.50;;;7.70;99.90;;;;;;5034506;28;20037;-57
2023/12/31 06:15:58;;;;;;;1.90;0.30;;;7.60;99.90;;;;;;5034694;28;20517;-58
2023/12/31 06:18:24;;;;;;;3.63;0.50;;;7.60;99.90;;;;;;5034732;28;20108;-59
2023/12/31 06:20:51;;;;;;;1.70;0.40;;;7.50;99.90;;;;;;5034560;28;20128;-58
2023/12/31 06:23:18;;;;;;;1.45;0.40;;;7.50;99.90;;;;;;5034247;28;20046;-59
2023/12/31 06:25:46;;;;;;;1.58;0.30;;;7.50;99.90;;;;;;5033123;28;20437;-59
2023/12/31 06:28:13;;;;;;;2.83;0.50;;;7.50;99.90;;;;;;5034243;28;20041;-57
2023/12/31 06:30:40;;;;;;;3.88;0.85;;;7.40;99.90;;;;;;5034277;28;20467;-58
2023/12/31 06:33:07;;;;;;;2.42;0.50;;;7.40;99.90;;;;;;5034478;28;20045;-58
2023/12/31 06:35:34;;;;;;;3.38;0.50;;;7.30;99.90;;;;;;5033997;28;20041;-58
2023/12/31 06:38:01;;;;;;;2.22;0.40;;;7.20;99.90;;;;;;5033974;28;20546;-58
2023/12/31 06:40:28;;;;;;;2.28;0.40;;;7.20;99.90;;;;;;5034062;28;20044;-58
2023/12/31 06:42:54;;;;;;;1.15;0.35;;;7.20;99.90;;;;;;5032659;28;20525;-58
2023/12/31 06:45:21;;;;;;;1.92;0.50;;;7.20;99.90;;;;;;5034348;28;20467;-57
2023/12/31 06:47:48;;;;;;;3.53;0.68;;;7.20;99.90;;;;;;5033900;28;20427;-57
2023/12/31 06:50:15;;;;;;;1.92;0.50;;;7.10;99.90;;;;;;5033849;28;20037;-58
2023/12/31 06:52:42;;;;;;;4.47;0.55;;;7.10;99.90;;;;;;5033892;28;20502;-57
2023/12/31 06:55:11;;;;;;;1.73;0.50;;;7.00;99.90;;;;;;5033857;28;20470;-59
2023/12/31 06:57:38;;;;;;;3.15;0.60;;;7.00;99.90;;;;;;5033579;28;20046;-58
2023/12/31 07:00:06;;;;;;;3.58;0.60;;;7.00;99.90;;;;;;5034140;28;20041;-59
2023/12/31 07:02:32;;;;;;;3.75;0.55;;;6.90;99.90;;;;;;5033850;28;20046;-59
2023/12/31 07:04:59;;;;;;;2.15;0.60;;;6.90;99.90;;;;;;5033552;28;20398;-59
2023/12/31 07:07:26;;;;;;;4.57;0.55;;;6.90;99.90;;;;;;5033738;28;20495;-59
2023/12/31 07:09:53;;;;;;;3.20;0.47;;;6.90;99.90;;;;;;5033457;28;20041;-58
2023/12/31 07:12:20;;;;;;;2.60;0.50;;;6.80;99.90;;;;;;5033240;28;20045;-59
2023/12/31 07:14:47;;;;;;;4.88;0.90;;;6.80;99.90;;;;;;5033349;28;20132;-58
2023/12/31 07:17:13;;;;;;;3.05;0.60;;;6.80;99.90;;;;;;5033423;28;20056;-60
2023/12/31 07:19:40;;;;;;;3.80;0.70;;;6.70;99.90;;;;;;5033428;28;20461;-59
2023/12/31 07:22:07;;;;;;;2.95;0.60;;;6.70;99.90;;;;;;5033381;28;20486;-59
2023/12/31 07:24:34;;;;;;;4.28;0.93;;;6.70;99.90;;;;;;5033543;28;20064;-59
2023/12/31 07:27:01;;;;;;;4.13;0.77;;;6.70;99.90;;;;;;5033056;28;20050;-59
2023/12/31 07:29:27;;;;;;;6.40;0.93;;;6.70;99.90;;;;;;5033038;28;20045;-60
2023/12/31 07:31:54;;;;;;;5.35;0.82;;;6.70;99.90;;;;;;5033196;28;20037;-59
2023/12/31 07:34:22;;;;;;;4.93;1.25;;;6.70;99.90;;;;;;5033049;28;20362;-59
2023/12/31 07:36:48;;;;;;;5.07;0.75;;;6.70;99.90;;;;;;5033202;28;20076;-59
2023/12/31 07:39:15;;;;;;;4.40;0.85;;;6.70;99.90;;;;;;5032221;28;20129;-58
2023/12/31 07:41:42;;;;;;;7.05;1.00;;;6.70;99.90;;;;;;5032305;28;20056;-59
2023/12/31 07:44:09;;;;;;;3.97;0.90;;;6.70;99.90;;;;;;5032123;28;20077;-64
2023/12/31 07:46:37;;;;;;;5.78;0.93;;;6.70;99.90;;;;;;5033156;28;20049;-64
2023/12/31 07:49:04;;;;;;;4.93;0.80;;;6.70;99.90;;;;;;5032927;28;20069;-64
2023/12/31 07:51:31;;;;;;;3.80;0.80;;;6.70;99.90;;;;;;5033103;28;20033;-59
2023/12/31 07:53:58;;;;;;;6.13;1.08;;;6.70;99.90;;;;;;5033091;28;20053;-59
2023/12/31 07:56:24;;;;;;;4.72;1.30;;;6.70;99.90;;;;;;5032012;28;20069;-59
2023/12/31 07:58:51;;;;;;;7.75;0.95;;;6.70;99.90;;;;;;5032976;28;20041;-59
2023/12/31 08:01:18;;;;;;;7.22;1.17;;;6.70;99.90;;;;;;5033054;28;20046;-59
2023/12/31 08:03:45;;;;;;;10.02;1.20;;;6.70;99.90;;;;;;5032729;28;20042;-59
2023/12/31 08:06:12;;;;;;;6.88;1.10;;;6.70;99.90;;;;;;5033050;28;20482;-60
2023/12/31 08:08:39;;;;;;;9.65;1.20;;;6.70;99.90;;;;;;5033069;28;20049;-59
2023/12/31 08:11:05;;;;;;;5.85;0.90;;;6.70;99.90;;;;;;5033188;28;20467;-59
2023/12/31 08:13:34;;;;;;;11.50;1.45;;;6.80;99.90;;;;;;5032495;28;20368;-57
2023/12/31 08:16:01;;;;;;;10.93;1.38;;;6.80;99.90;;;;;;5032943;28;20076;-57
2023/12/31 08:18:27;;;;;;;12.38;1.52;;;6.80;99.90;;;;;;5032604;28;20042;-57
2023/12/31 08:20:54;;;;;;;11.27;1.52;;;6.90;99.90;;;;;;5033268;28;20041;-57
2023/12/31 08:23:21;;;;;;;14.93;1.73;;;6.90;99.90;;;;;;5032990;28;20045;-58
2023/12/31 08:25:48;;;;;;;13.90;2.22;;;6.90;99.90;;;;;;5032738;28;20041;-58
2023/12/31 08:28:15;;;;;;;12.23;1.65;;;7.00;99.90;;;;;;5032618;28;20043;-57
2023/12/31 08:30:41;;;;;;;12.45;1.90;;;7.00;99.90;;;;;;5032578;28;20034;-57
2023/12/31 08:33:08;;;;;;;16.55;2.10;;;7.00;99.90;;;;;;5032573;28;20052;-57
2023/12/31 08:35:35;;;;;;;11.02;1.98;;;7.10;99.90;;;;;;5030248;28;20084;-58
2023/12/31 08:38:02;;;;;;;16.48;2.70;;;7.10;99.90;;;;;;5022141;28;20046;-58
2023/12/31 08:40:30;;;;;;;17.42;2.13;;;7.10;99.90;;;;;;5013122;28;20451;-58
2023/12/31 08:42:57;;;;;;;12.95;2.47;;;7.10;99.90;;;;;;5012808;28;20450;-57
2023/12/31 08:45:24;;;;;;;13.32;2.97;;;7.20;99.90;;;;;;5012740;28;20045;-57
2023/12/31 08:47:52;;;;;;;14.32;2.45;;;7.20;99.90;;;;;;4995050;28;20442;-56
2023/12/31 08:50:19;;;;;;;12.90;2.10;;;7.20;99.90;;;;;;5031127;28;20069;-57
2023/12/31 08:52:46;;;;;;;15.27;2.40;;;7.20;99.90;;;;;;5033200;28;20045;-57
2023/12/31 08:55:13;;;;;;;18.85;3.25;;;7.20;99.90;;;;;;5016633;28;20046;-55
2023/12/31 08:57:40;;;;;;;16.02;2.55;;;7.20;99.90;;;;;;5015323;28;20044;-57
2023/12/31 09:00:07;;;;;;;16.15;2.38;;;7.30;99.90;;;;;;5027793;28;20125;-59
2023/12/31 09:02:34;;;;;;;16.77;2.72;;;7.30;99.90;;;;;;5035495;28;20483;-56
2023/12/31 09:05:01;;;;;;;16.52;2.50;;;7.40;99.90;;;;;;5035122;28;20088;-57
2023/12/31 09:07:28;;;;;;;12.55;2.15;;;7.40;99.90;;;;;;5035400;28;20046;-58
2023/12/31 09:09:54;;;;;;;12.27;2.33;;;7.50;99.90;;;;;;5034029;28;20045;-54
2023/12/31 09:12:21;;;;;;;11.00;2.50;;;7.50;99.90;;;;;;5035097;28;20132;-56
2023/12/31 09:14:48;;;;;;;17.60;2.35;;;7.60;99.90;;;;;;5034773;28;20490;-57
2023/12/31 09:17:15;;;;;;;12.93;2.17;;;7.60;99.90;;;;;;5034981;28;20038;-68
2023/12/31 09:19:42;;;;;;;11.82;2.05;;;7.60;99.90;;;;;;5035228;28;20045;-68
2023/12/31 09:22:09;;;;;;;15.98;2.60;;;7.70;99.90;;;;;;5035050;28;20427;-57
2023/12/31 09:24:35;;;;;;;12.18;2.33;;;7.70;99.90;;;;;;5034812;28;20053;-58
2023/12/31 09:27:03;;;;;;;13.40;2.35;;;7.80;99.90;;;;;;5034766;28;20050;-59
2023/12/31 09:29:30;;;;;;;13.82;2.50;;;7.90;99.90;;;;;;5034920;28;20033;-54
2023/12/31 09:31:57;;;;;;;13.35;2.15;;;7.90;99.90;;;;;;5018052;28;20107;-58
2023/12/31 09:34:24;;;;;;;16.88;2.72;;;8.00;99.90;;;;;;5032543;28;20045;-58
2023/12/31 09:36:51;;;;;;;15.55;2.30;;;8.10;99.90;;;;;;5023221;28;20474;-59
2023/12/31 09:39:18;;;;;;;14.48;2.80;;;8.10;99.90;;;;;;5015157;28;20521;-58
2023/12/31 09:41:44;;;;;;;17.73;2.72;;;8.10;99.90;;;;;;5015584;28;20049;-59
2023/12/31 09:44:11;;;;;;;20.00;3.08;;;8.10;99.90;;;;;;5015583;28;20050;-58
2023/12/31 09:46:38;;;;;;;9.43;2.30;;;8.10;99.90;;;;;;5015613;28;20049;-59
2023/12/31 09:49:05;;;;;;;9.90;1.90;;;8.20;99.90;;;;;;5015584;28;20494;-58
2023/12/31 09:51:32;;;;;;;13.18;2.47;;;8.20;99.90;;;;;;5015345;28;20121;-58
2023/12/31 09:53:59;;;;;;;15.40;2.88;;;8.30;99.90;;;;;;5015612;28;20519;-59
2023/12/31 09:56:25;;;;;;;16.77;2.60;;;8.30;99.90;;;;;;5015175;28;20034;-58
2023/12/31 09:58:52;;;;;;;20.33;2.95;;;8.30;99.90;;;;;;5016791;28;20053;-58
2023/12/31 10:01:31;;;;;;;15.13;2.58;;;8.20;99.90;;;;;;5034104;28;20163;-57
2023/12/31 10:03:57;;;;;;;13.27;2.53;;;8.20;99.90;;;;;;5032468;28;20046;-57
2023/12/31 10:06:24;;;;;;;16.50;3.10;;;8.10;99.90;;;;;;5034012;28;20501;-58
2023/12/31 10:08:51;;;;;;;16.00;2.65;;;8.10;99.90;;;;;;5034159;28;20045;-57
2023/12/31 10:11:18;;;;;;;14.35;2.60;;;8.10;99.90;;;;;;5033962;28;20517;-57
2023/12/31 10:13:45;;;;;;;16.65;3.17;;;8.00;99.90;;;;;;5033482;28;20046;-58
2023/12/31 10:16:15;;;;;;;16.05;3.15;;;8.00;99.90;;;;;;5033802;28;20065;-58
2023/12/31 10:18:42;;;;;;;17.23;2.60;;;8.00;99.90;;;;;;5033858;28;20042;-57
2023/12/31 10:21:09;;;;;;;18.08;3.10;;;8.00;99.90;;;;;;5033750;28;20044;-57
2023/12/31 10:23:36;;;;;;;23.40;3.38;;;7.90;99.90;;;;;;5033557;28;20045;-57
2023/12/31 10:26:03;;;;;;;16.13;2.97;;;7.90;99.90;;;;;;5033681;28;20041;-57
2023/12/31 10:28:30;;;;;;;15.57;3.10;;;7.90;99.90;;;;;;5033436;28;20037;-58
2023/12/31 10:30:57;;;;;;;18.40;3.25;;;8.00;99.90;;;;;;5033433;28;20045;-59
2023/12/31 10:33:24;;;;;;;19.40;3.30;;;7.90;99.90;;;;;;5033190;28;20415;-58
2023/12/31 10:35:51;;;;;;;14.23;2.50;;;7.90;99.90;;;;;;5033657;28;20041;-58
2023/12/31 10:38:18;;;;;;;21.98;2.75;;;7.90;99.90;;;;;;5033502;28;20033;-58
2023/12/31 10:40:46;;;;;;;21.40;3.10;;;7.90;99.90;;;;;;5023336;28;20407;-58
2023/12/31 10:43:13;;;;;;;18.08;2.60;;;8.00;99.90;;;;;;5014430;28;20376;-57
2023/12/31 10:45:40;;;;;;;19.95;3.53;;;8.00;99.90;;;;;;5014341;28;20475;-57
2023/12/31 10:48:07;;;;;;;14.20;2.60;;;8.00;99.90;;;;;;5014513;28;20348;-58
2023/12/31 10:50:34;;;;;;;14.00;2.38;;;8.00;99.90;;;;;;5014371;28;20122;-57
2023/12/31 10:53:02;;;;;;;14.77;2.53;;;8.10;99.90;;;;;;5014423;28;20115;-58
2023/12/31 10:55:29;;;;;;;15.63;2.75;;;8.10;99.90;;;;;;5024686;28;20033;-58
2023/12/31 10:57:56;;;;;;;14.73;2.70;;;8.00;99.90;;;;;;5033266;28;20048;-59
2023/12/31 11:00:23;;;;;;;13.75;2.53;;;8.00;99.90;;;;;;5032979;28;20091;-58
2023/12/31 11:02:50;;;;;;;16.50;2.60;;;8.00;99.90;;;;;;5033241;28;20045;-63
2023/12/31 11:05:21;;;;;;;12.43;2.60;;;8.00;99.90;;;;;;5015095;28;20411;-64
2023/12/31 11:07:48;;;;;;;12.05;2.28;;;8.00;99.90;;;;;;5032848;28;20049;-65
2023/12/31 11:10:15;;;;;;;16.67;3.20;;;8.00;99.90;;;;;;5033019;28;20486;-64
2023/12/31 11:12:48;;;;;;;16.48;2.35;;;8.00;99.90;;;;;;5032685;28;20042;-64
2023/12/31 11:15:16;;;;;;;12.77;2.53;;;8.00;99.90;;;;;;5026431;28;20510;-64
2023/12/31 11:17:42;;;;;;;14.48;2.67;;;8.10;99.90;;;;;;5013871;28;20038;-64
2023/12/31 11:20:09;;;;;;;13.27;2.45;;;8.10;99.90;;;;;;5013696;28;20069;-64
2023/12/31 11:22:36;;;;;;;13.93;2.70;;;8.10;99.90;;;;;;5013856;28;20380;-64
2023/12/31 11:25:06;;;;;;;15.52;3.05;;;8.20;99.90;;;;;;5013567;28;20070;-64
2023/12/31 11:27:33;;;;;;;15.57;3.55;;;8.20;99.90;;;;;;5013809;28;20060;-64
2023/12/31 11:30:00;;;;;;;16.35;3.42;;;8.20;99.90;;;;;;5024501;28;20402;-64
2023/12/31 11:32:27;;;;;;;15.45;2.88;;;8.30;99.90;;;;;;5032536;28;20037;-64
2023/12/31 11:34:54;;;;;;;13.45;3.00;;;8.30;99.90;;;;;;5032516;28;20034;-63
2023/12/31 11:37:21;;;;;;;15.15;3.15;;;8.30;99.90;;;;;;5032769;28;20133;-64
2023/12/31 11:39:47;;;;;;;9.32;2.25;;;8.40;99.90;;;;;;5032722;28;20050;-64
2023/12/31 11:42:16;;;;;;;11.27;2.40;;;8.40;99.90;;;;;;5032490;28;20045;-65
2023/12/31 11:44:43;;;;;;;9.80;2.53;;;8.40;99.90;;;;;;5032360;28;20128;-63
2023/12/31 11:47:14;;;;;;;10.02;2.13;;;8.40;99.90;;;;;;5031175;28;20049;-63
2023/12/31 11:49:41;;;;;;;11.60;2.95;;;8.40;99.90;;;;;;5032287;28;20037;-63
2023/12/31 11:52:08;;;;;;;9.73;2.15;;;8.40;99.90;;;;;;5031637;28;20045;-63
2023/12/31 11:54:34;;;;;;;7.07;1.80;;;8.40;99.90;;;;;;5031530;28;20033;-64
2023/12/31 11:57:01;;;;;;;11.07;1.98;;;8.50;99.90;;;;;;5025697;28;20042;-64
2023/12/31 11:59:28;;;;;;;6.50;1.70;;;8.50;99.90;;;;;;5032050;28;20053;-63
2023/12/31 12:01:55;;;;;;;7.00;1.75;;;8.50;99.90;;;;;;5031874;28;20087;-63
2023/12/31 12:04:22;;;;;;;9.50;1.83;;;8.60;99.90;;;;;;5031721;28;20103;-64
2023/12/31 12:06:49;;;;;;;6.90;1.65;;;8.60;99.90;;;;;;5030392;28;20383;-66
2023/12/31 12:09:16;;;;;;;6.90;1.70;;;8.70;99.90;;;;;;5031672;28;20482;-67
2023/12/31 12:11:43;;;;;;;7.75;1.42;;;8.70;99.90;;;;;;5032042;28;20466;-67
2023/12/31 12:14:10;;;;;;;6.38;1.88;;;8.90;99.90;;;;;;5031477;28;20419;-66
2023/12/31 12:16:37;;;;;;;8.90;1.73;;;9.00;99.90;;;;;;5031827;28;20045;-67
2023/12/31 12:19:05;;;;;;;6.18;1.45;;;9.10;99.90;;;;;;5028074;28;20066;-67
2023/12/31 12:21:32;;;;;;;10.20;3.35;;;9.20;99.90;;;;;;5012811;28;20050;-66
2023/12/31 12:23:58;;;;;;;8.20;1.88;;;9.40;99.90;;;;;;5031112;28;20053;-66
2023/12/31 12:26:25;;;;;;;33.25;18.77;;;9.50;99.90;;;;;;5031718;28;20049;-67
2023/12/31 12:28:55;;;;;;;13.73;5.35;;;9.60;99.90;;;;;;5034056;28;20091;-66
2023/12/31 12:31:22;;;;;;;12.00;4.13;;;9.60;99.90;;;;;;5035399;28;20536;-67
2023/12/31 12:33:49;;;;;;;10.50;2.28;;;9.60;99.90;;;;;;5035137;28;20359;-67
2023/12/31 12:36:16;;;;;;;10.93;2.50;;;9.50;99.90;;;;;;5034992;28;20533;-68
2023/12/31 12:38:45;;;;;;;14.65;4.75;;;9.50;99.90;;;;;;5033914;28;20088;-68
2023/12/31 12:41:12;;;;;;;13.70;2.90;;;9.50;99.90;;;;;;5035176;28;20037;-67
2023/12/31 12:43:39;;;;;;;15.73;2.70;;;9.40;99.90;;;;;;5035214;28;20410;-68
2023/12/31 12:46:06;;;;;;;15.70;3.30;;;9.40;99.90;;;;;;5035054;28;20046;-60
2023/12/31 12:48:33;;;;;;;12.00;3.10;;;9.40;99.90;;;;;;5035195;28;20045;-59
2023/12/31 12:51:00;;;;;;;14.55;3.50;;;9.40;99.90;;;;;;5034966;28;20129;-59